Time;durP1;ratioP1;P1;durP2;ratioP2;P2;SDS_P1;SDS_P2;PMS_P1;PMS_P2;Temp;Humidity;BMP_temperature;BMP_pressure;BME280_temperature;BME280_humidity;BME280_pressure;Samples;Min_cycle;Max_cycle;Signal;HPM_P1;HPM_P2
2022/06/06 00:00:45;;;;;;;;;6.25;6.25;;;;;;;;5074132;27;46214;-74
2022/06/06 00:03:11;;;;;;;;;6.25;6.25;;;;;;;;5079559;27;45653;-73
2022/06/06 00:05:39;;;;;;;;;6.75;6.75;;;;;;;;5069552;27;45392;-74
2022/06/06 00:08:05;;;;;;;;;5.50;5.50;;;;;;;;5073862;28;45445;-74
2022/06/06 00:10:30;;;;;;;;;6.25;5.25;;;;;;;;5080362;27;45440;-74
2022/06/06 00:12:55;;;;;;;;;6.75;6.00;;;;;;;;5069547;28;45375;-74
2022/06/06 00:15:22;;;;;;;;;6.50;6.50;;;;;;;;5066674;27;45494;-74
2022/06/06 00:17:47;;;;;;;;;6.25;6.25;;;;;;;;5076322;28;45238;-74
2022/06/06 00:20:12;;;;;;;;;3.75;3.75;;;;;;;;5077306;27;45445;-75
2022/06/06 00:22:38;;;;;;;;;6.00;6.00;;;;;;;;5071960;27;45702;-74
2022/06/06 00:25:03;;;;;;;;;6.75;6.50;;;;;;;;5064381;28;45457;-74
2022/06/06 00:27:28;;;;;;;;;6.50;5.00;;;;;;;;5064981;28;45233;-74
2022/06/06 00:29:54;;;;;;;;;4.00;4.00;;;;;;;;5075079;28;46060;-75
2022/06/06 00:35:05;;;;;;;;;4.25;4.25;;;;;;;;5079253;27;45238;-74
2022/06/06 00:37:31;;;;;;;;;5.25;5.25;;;;;;;;5064233;27;45467;-74
2022/06/06 00:39:56;;;;;;;;;6.00;4.75;;;;;;;;5064153;28;45954;-74
2022/06/06 00:42:26;;;;;;;;;8.75;7.25;;;;;;;;5077620;27;45369;-73
2022/06/06 00:45:10;;;;;;;;;5.75;5.75;;;;;;;;5067818;27;45524;-76
2022/06/06 00:47:38;;;;;;;;;4.50;4.50;;;;;;;;5059151;27;45430;-75
2022/06/06 00:50:09;;;;;;;;;4.75;4.00;;;;;;;;5061554;28;46334;-75
2022/06/06 00:52:37;;;;;;;;;4.75;4.75;;;;;;;;5069877;28;45371;-75
2022/06/06 00:55:04;;;;;;;;;5.00;5.00;;;;;;;;5075370;27;45413;-75
2022/06/06 00:57:34;;;;;;;;;7.75;6.00;;;;;;;;5072668;27;45455;-75
2022/06/06 01:00:02;;;;;;;;;6.75;6.25;;;;;;;;5073899;27;46993;-76
2022/06/06 01:02:27;;;;;;;;;4.75;4.50;;;;;;;;5078235;27;45594;-76
2022/06/06 01:04:54;;;;;;;;;7.00;7.00;;;;;;;;5083845;27;45405;-75
2022/06/06 01:07:19;;;;;;;;;5.00;5.00;;;;;;;;5073954;27;45304;-75
2022/06/06 01:09:45;;;;;;;;;5.25;5.25;;;;;;;;5069882;28;45837;-76
2022/06/06 01:12:15;;;;;;;;;6.00;6.00;;;;;;;;5072130;27;45593;-76
2022/06/06 01:14:51;;;;;;;;;4.00;4.00;;;;;;;;5074805;28;45218;-75
2022/06/06 01:17:35;;;;;;;;;4.50;4.50;;;;;;;;5061039;28;45346;-76
2022/06/06 01:20:03;;;;;;;;;5.00;5.00;;;;;;;;5076763;27;45413;-75
2022/06/06 01:22:31;;;;;;;;;5.00;3.25;;;;;;;;5075402;27;45579;-76
2022/06/06 01:25:08;;;;;;;;;5.75;5.75;;;;;;;;5068338;27;45375;-75
2022/06/06 01:27:42;;;;;;;;;4.50;4.50;;;;;;;;5063910;27;45512;-76
2022/06/06 01:30:12;;;;;;;;;5.25;5.25;;;;;;;;5059774;28;46002;-76
2022/06/06 01:32:40;;;;;;;;;4.25;4.25;;;;;;;;5069632;27;45511;-75
2022/06/06 01:35:06;;;;;;;;;5.25;5.25;;;;;;;;5072878;28;45327;-75
2022/06/06 01:37:34;;;;;;;;;4.50;4.50;;;;;;;;5076328;27;45442;-75
2022/06/06 01:40:00;;;;;;;;;3.00;3.00;;;;;;;;5072829;27;47479;-75
2022/06/06 01:42:44;;;;;;;;;4.75;3.50;;;;;;;;5059084;28;45467;-76
2022/06/06 01:45:28;;;;;;;;;5.50;4.00;;;;;;;;5071903;27;45558;-75
2022/06/06 01:47:57;;;;;;;;;2.00;2.00;;;;;;;;5058572;28;45474;-75
2022/06/06 01:50:22;;;;;;;;;6.00;4.00;;;;;;;;5072451;28;46287;-75
2022/06/06 01:52:53;;;;;;;;;3.50;3.25;;;;;;;;5070694;28;45465;-75
2022/06/06 01:55:19;;;;;;;;;5.00;5.00;;;;;;;;5078982;27;45560;-76
2022/06/06 01:57:45;;;;;;;;;4.50;3.75;;;;;;;;5078073;27;45367;-76
2022/06/06 02:00:11;;;;;;;;;4.00;4.00;;;;;;;;5074939;27;45466;-75
2022/06/06 02:02:37;;;;;;;;;4.50;4.50;;;;;;;;5074545;27;45240;-76
2022/06/06 02:05:02;;;;;;;;;5.00;4.00;;;;;;;;5075682;27;45374;-76
2022/06/06 02:07:27;;;;;;;;;3.67;3.67;;;;;;;;5064324;28;45375;-75
2022/06/06 02:09:52;;;;;;;;;5.00;4.00;;;;;;;;5061394;28;46285;-75
2022/06/06 02:12:20;;;;;;;;;3.75;3.75;;;;;;;;5061123;28;45481;-75
2022/06/06 02:14:47;;;;;;;;;4.00;4.00;;;;;;;;5076294;27;45391;-74
2022/06/06 02:17:12;;;;;;;;;3.67;3.67;;;;;;;;5077207;27;45494;-75
2022/06/06 02:19:37;;;;;;;;;4.00;4.00;;;;;;;;5069388;28;45442;-74
2022/06/06 02:22:03;;;;;;;;;4.00;4.00;;;;;;;;5074062;27;45414;-75
2022/06/06 02:24:28;;;;;;;;;4.00;4.00;;;;;;;;5069229;28;45453;-75
2022/06/06 02:26:53;;;;;;;;;3.33;3.33;;;;;;;;5084136;27;45513;-74
2022/06/06 02:29:18;;;;;;;;;3.00;3.00;;;;;;;;5059510;28;45450;-75
2022/06/06 02:31:44;;;;;;;;;3.00;3.00;;;;;;;;5075791;27;45448;-75
2022/06/06 02:34:09;;;;;;;;;4.00;4.00;;;;;;;;5069604;27;46108;-75
2022/06/06 02:36:34;;;;;;;;;3.75;3.75;;;;;;;;5072437;27;45244;-76
2022/06/06 02:39:00;;;;;;;;;5.00;5.00;;;;;;;;5071891;27;46928;-76
2022/06/06 02:41:26;;;;;;;;;4.00;4.00;;;;;;;;5076515;27;45433;-75
2022/06/06 02:43:52;;;;;;;;;3.67;3.67;;;;;;;;5071679;28;45553;-75
2022/06/06 02:46:18;;;;;;;;;3.00;3.00;;;;;;;;5073545;28;45413;-75
2022/06/06 02:48:43;;;;;;;;;4.00;4.00;;;;;;;;5068875;28;46171;-75
2022/06/06 02:51:08;;;;;;;;;3.67;3.67;;;;;;;;5059143;28;45569;-75
2022/06/06 02:53:33;;;;;;;;;3.00;3.00;;;;;;;;5057592;28;45377;-75
2022/06/06 02:55:59;;;;;;;;;4.00;4.00;;;;;;;;5071452;28;45411;-75
2022/06/06 02:58:25;;;;;;;;;3.00;3.00;;;;;;;;5068837;28;47090;-74
2022/06/06 03:00:56;;;;;;;;;3.00;3.00;;;;;;;;5067751;27;45572;-76
2022/06/06 03:03:22;;;;;;;;;3.67;3.67;;;;;;;;5083663;27;45647;-76
2022/06/06 03:05:54;;;;;;;;;1.67;1.67;;;;;;;;5072529;27;45439;-75
2022/06/06 03:08:25;;;;;;;;;7.00;4.00;;;;;;;;5071553;28;45521;-74
2022/06/06 03:10:53;;;;;;;;;3.33;3.33;;;;;;;;5075167;27;45543;-75
2022/06/06 03:13:37;;;;;;;;;2.00;2.00;;;;;;;;5063463;28;45444;-75
2022/06/06 03:22:28;;;;;;;;;2.25;2.25;;;;;;;;5068828;27;45322;-75
2022/06/06 03:24:54;;;;;;;;;4.33;3.00;;;;;;;;5064961;27;45562;-75
2022/06/06 03:27:24;;;;;;;;;4.00;4.00;;;;;;;;5073635;28;45559;-75
2022/06/06 03:29:58;;;;;;;;;3.00;3.00;;;;;;;;5056069;28;45354;-75
2022/06/06 03:32:26;;;;;;;;;2.00;2.00;;;;;;;;5085244;27;45509;-75
2022/06/06 03:34:54;;;;;;;;;2.33;2.00;;;;;;;;5074775;28;45347;-76
2022/06/06 03:37:30;;;;;;;;;3.75;3.75;;;;;;;;5078917;27;45321;-75
2022/06/06 03:39:55;;;;;;;;;2.67;2.00;;;;;;;;5072589;27;46202;-75
2022/06/06 03:42:27;;;;;;;;;2.50;2.50;;;;;;;;5063976;28;45343;-75
2022/06/06 03:45:02;;;;;;;;;4.33;4.33;;;;;;;;5060445;28;45572;-74
2022/06/06 03:47:46;;;;;;;;;3.75;3.75;;;;;;;;5075117;28;45250;-76
2022/06/06 03:50:17;;;;;;;;;2.33;2.33;;;;;;;;5062983;28;45193;-75
2022/06/06 03:53:12;;;;;;;;;4.00;4.00;;;;;;;;5063475;28;48583;-74
2022/06/06 03:55:56;;;;;;;;;3.75;3.75;;;;;;;;5067484;28;45439;-74
2022/06/06 03:58:22;;;;;;;;;3.00;3.00;;;;;;;;5071537;27;45563;-74
2022/06/06 04:00:48;;;;;;;;;4.67;2.33;;;;;;;;5071134;27;46056;-75
2022/06/06 04:03:13;;;;;;;;;2.67;2.67;;;;;;;;5081528;27;45414;-74
2022/06/06 04:05:40;;;;;;;;;3.33;2.67;;;;;;;;5077161;27;45219;-74
2022/06/06 04:08:06;;;;;;;;;2.00;2.00;;;;;;;;5074113;28;45320;-74
2022/06/06 04:10:39;;;;;;;;;3.00;3.00;;;;;;;;5081050;27;45371;-76
2022/06/06 04:13:16;;;;;;;;;2.33;2.33;;;;;;;;5072847;27;45394;-75
2022/06/06 04:15:54;;;;;;;;;3.50;3.50;;;;;;;;5066292;27;45473;-75
2022/06/06 04:18:37;;;;;;;;;3.00;3.00;;;;;;;;5080437;27;45588;-74
2022/06/06 04:21:26;;;;;;;;;3.00;3.00;;;;;;;;5069208;27;46460;-75
2022/06/06 04:23:51;;;;;;;;;4.50;4.50;;;;;;;;5080155;27;45526;-75
2022/06/06 04:26:27;;;;;;;;;3.00;3.00;;;;;;;;5078718;28;45476;-75
2022/06/06 04:29:04;;;;;;;;;3.00;3.00;;;;;;;;5062328;28;45839;-76
2022/06/06 04:31:32;;;;;;;;;2.00;2.00;;;;;;;;5075093;27;45997;-75
2022/06/06 04:34:17;;;;;;;;;3.00;3.00;;;;;;;;5079295;27;45603;-75
2022/06/06 04:36:46;;;;;;;;;2.00;2.00;;;;;;;;5068327;27;45372;-75
2022/06/06 04:39:36;;;;;;;;;2.67;2.67;;;;;;;;5072555;27;45443;-75
2022/06/06 04:42:07;;;;;;;;;2.00;2.00;;;;;;;;5059528;28;46206;-76
2022/06/06 04:44:38;;;;;;;;;2.67;2.67;;;;;;;;5073933;28;45573;-74
2022/06/06 04:47:20;;;;;;;;;2.00;2.00;;;;;;;;5074795;27;45326;-75
2022/06/06 04:49:46;;;;;;;;;2.00;2.00;;;;;;;;5062753;28;45229;-76
2022/06/06 04:52:12;;;;;;;;;3.25;3.25;;;;;;;;5066379;28;45832;-75
2022/06/06 04:54:39;;;;;;;;;2.00;2.00;;;;;;;;5070887;28;45411;-76
2022/06/06 04:57:04;;;;;;;;;2.00;2.00;;;;;;;;5072697;28;45505;-74
2022/06/06 04:59:30;;;;;;;;;2.00;2.00;;;;;;;;5073811;28;45390;-76
2022/06/06 05:01:58;;;;;;;;;4.00;3.00;;;;;;;;5080136;27;46294;-75
2022/06/06 05:04:23;;;;;;;;;1.00;1.00;;;;;;;;5073712;27;45409;-74
2022/06/06 05:07:02;;;;;;;;;2.00;2.00;;;;;;;;5076747;27;45294;-75
2022/06/06 05:09:27;;;;;;;;;2.33;2.00;;;;;;;;5074711;27;45399;-76
2022/06/06 05:12:01;;;;;;;;;2.20;2.20;;;;;;;;5059264;28;46042;-75
2022/06/06 05:14:26;;;;;;;;;2.00;2.00;;;;;;;;5082780;27;45491;-75
2022/06/06 05:17:00;;;;;;;;;2.00;2.00;;;;;;;;5072089;28;45618;-76
2022/06/06 05:19:37;;;;;;;;;3.00;2.00;;;;;;;;5061284;27;45422;-75
2022/06/06 05:22:21;;;;;;;;;1.00;1.00;;;;;;;;5063227;27;48514;-75
2022/06/06 05:24:53;;;;;;;;;2.67;2.67;;;;;;;;5062194;28;45339;-75
2022/06/06 05:27:31;;;;;;;;;4.67;1.67;;;;;;;;5084454;27;45489;-76
2022/06/06 05:30:04;;;;;;;;;2.33;2.00;;;;;;;;5057962;28;45268;-75
2022/06/06 05:32:49;;;;;;;;;1.75;1.75;;;;;;;;5069637;27;45941;-75
2022/06/06 05:35:20;;;;;;;;;1.67;1.67;;;;;;;;5072734;28;45311;-75
2022/06/06 05:37:45;;;;;;;;;2.67;2.67;;;;;;;;5074629;27;45287;-76
2022/06/06 05:40:20;;;;;;;;;2.33;2.33;;;;;;;;5074497;27;45475;-75
2022/06/06 05:43:06;;;;;;;;;2.75;2.00;;;;;;;;5070165;28;46417;-75
2022/06/06 05:45:40;;;;;;;;;1.00;1.00;;;;;;;;5069952;28;47312;-75
2022/06/06 05:48:22;;;;;;;;;2.00;2.00;;;;;;;;5072669;28;45546;-76
2022/06/06 05:50:48;;;;;;;;;2.00;2.00;;;;;;;;5083675;27;45285;-74
2022/06/06 05:53:21;;;;;;;;;3.00;2.00;;;;;;;;5062337;28;46037;-76
2022/06/06 05:55:52;;;;;;;;;2.67;1.00;;;;;;;;5076321;27;45541;-75
2022/06/06 05:58:36;;;;;;;;;2.00;2.00;;;;;;;;5068140;27;45604;-75
2022/06/06 06:01:10;;;;;;;;;2.67;1.67;;;;;;;;5068922;27;45332;-75
2022/06/06 06:03:53;;;;;;;;;3.00;1.33;;;;;;;;5071040;28;47141;-75
2022/06/06 06:06:28;;;;;;;;;2.33;2.33;;;;;;;;5071585;27;45399;-75
2022/06/06 06:09:06;;;;;;;;;2.00;2.00;;;;;;;;5058087;28;45477;-75
2022/06/06 06:11:32;;;;;;;;;2.00;2.00;;;;;;;;5058281;27;45395;-74
2022/06/06 06:14:12;;;;;;;;;0.00;0.00;;;;;;;;5071425;28;46028;-75
2022/06/06 06:16:41;;;;;;;;;1.00;1.00;;;;;;;;5069668;28;45450;-75
2022/06/06 06:19:08;;;;;;;;;1.00;1.00;;;;;;;;5070480;28;45482;-76
2022/06/06 06:21:54;;;;;;;;;2.00;2.00;;;;;;;;5069794;27;45484;-75
2022/06/06 06:24:24;;;;;;;;;1.33;1.00;;;;;;;;5069583;28;46307;-75
2022/06/06 06:26:49;;;;;;;;;1.00;1.00;;;;;;;;5058363;28;45493;-75
2022/06/06 06:29:14;;;;;;;;;3.00;3.00;;;;;;;;5076429;27;45437;-75
2022/06/06 06:31:40;;;;;;;;;1.00;1.00;;;;;;;;5079011;27;45498;-75
2022/06/06 06:34:23;;;;;;;;;1.67;1.67;;;;;;;;5079690;27;45534;-75
2022/06/06 06:37:15;;;;;;;;;1.67;1.67;;;;;;;;5069513;27;45451;-73
2022/06/06 06:39:40;;;;;;;;;1.25;1.25;;;;;;;;5050004;28;45378;-75
2022/06/06 06:42:14;;;;;;;;;2.00;2.00;;;;;;;;5058397;28;45341;-75
2022/06/06 06:44:45;;;;;;;;;3.00;2.00;;;;;;;;5051906;28;46990;-75
2022/06/06 06:47:17;;;;;;;;;1.67;1.67;;;;;;;;5068160;28;45439;-75
2022/06/06 06:49:51;;;;;;;;;1.33;1.33;;;;;;;;5052483;28;45269;-76
2022/06/06 06:52:19;;;;;;;;;1.00;1.00;;;;;;;;5050360;28;45483;-77
2022/06/06 06:54:50;;;;;;;;;3.00;1.75;;;;;;;;5060313;28;45388;-76
2022/06/06 06:57:29;;;;;;;;;1.00;1.00;;;;;;;;5052698;28;45525;-76
2022/06/06 07:00:00;;;;;;;;;1.00;1.00;;;;;;;;5052451;28;45670;-76
2022/06/06 07:08:44;;;;;;;;;1.25;1.25;;;;;;;;4971482;28;45462;-75
2022/06/06 07:11:12;;;;;;;;;2.00;2.00;;;;;;;;4980866;28;45430;-75
2022/06/06 07:13:45;;;;;;;;;2.67;2.00;;;;;;;;4979456;28;45400;-76
2022/06/06 07:16:19;;;;;;;;;1.00;1.00;;;;;;;;4985056;28;45366;-75
2022/06/06 07:18:45;;;;;;;;;1.00;1.00;;;;;;;;4993364;28;45412;-76
2022/06/06 07:21:12;;;;;;;;;2.00;1.00;;;;;;;;4992927;28;45492;-75
2022/06/06 07:23:39;;;;;;;;;1.00;1.00;;;;;;;;4993990;28;45551;-75
2022/06/06 07:26:04;;;;;;;;;1.00;1.00;;;;;;;;4995190;28;45345;-75
2022/06/06 07:28:30;;;;;;;;;1.00;1.00;;;;;;;;4998154;28;45575;-75
2022/06/06 07:31:03;;;;;;;;;3.00;1.00;;;;;;;;4992395;28;45595;-76
2022/06/06 07:33:28;;;;;;;;;1.00;1.00;;;;;;;;4991550;28;45445;-76
2022/06/06 07:36:04;;;;;;;;;2.00;2.00;;;;;;;;4993908;28;45892;-75
2022/06/06 07:38:32;;;;;;;;;1.67;1.00;;;;;;;;4994612;28;45449;-76
2022/06/06 07:40:57;;;;;;;;;1.67;1.67;;;;;;;;5014219;28;45439;-76
2022/06/06 07:43:42;;;;;;;;;2.00;1.00;;;;;;;;5057819;28;45454;-76
2022/06/06 07:46:10;;;;;;;;;1.00;1.00;;;;;;;;5063215;28;47090;-76
2022/06/06 07:48:55;;;;;;;;;2.67;2.00;;;;;;;;5062154;28;45314;-76
2022/06/06 07:51:32;;;;;;;;;1.00;1.00;;;;;;;;5072291;28;45236;-75
2022/06/06 07:54:17;;;;;;;;;2.00;2.00;;;;;;;;5072244;27;45563;-76
2022/06/06 07:56:42;;;;;;;;;1.00;1.00;;;;;;;;5076498;27;45924;-76
2022/06/06 07:59:11;;;;;;;;;2.00;2.00;;;;;;;;5078640;28;45291;-76
2022/06/06 08:01:51;;;;;;;;;2.00;2.00;;;;;;;;5081182;27;45645;-76
2022/06/06 08:04:16;;;;;;;;;1.00;1.00;;;;;;;;5072398;27;45562;-75
2022/06/06 08:06:53;;;;;;;;;0.67;0.67;;;;;;;;5065802;27;45351;-75
2022/06/06 08:09:41;;;;;;;;;1.00;1.00;;;;;;;;5075085;27;45394;-75
2022/06/06 08:12:08;;;;;;;;;1.00;1.00;;;;;;;;5061486;28;45426;-75
2022/06/06 08:14:47;;;;;;;;;1.00;1.00;;;;;;;;5060186;28;45357;-76
2022/06/06 08:17:38;;;;;;;;;1.00;1.00;;;;;;;;5062521;28;46279;-73
2022/06/06 08:20:12;;;;;;;;;2.00;2.00;;;;;;;;5062292;28;45516;-76
2022/06/06 08:22:42;;;;;;;;;1.00;1.00;;;;;;;;5070961;27;45533;-75
2022/06/06 08:25:08;;;;;;;;;0.00;0.00;;;;;;;;5071349;27;45531;-76
2022/06/06 08:27:35;;;;;;;;;1.00;1.00;;;;;;;;5082878;27;45402;-76
2022/06/06 08:30:00;;;;;;;;;1.00;1.00;;;;;;;;5059888;28;45537;-76
2022/06/06 08:32:27;;;;;;;;;1.00;1.00;;;;;;;;5083821;27;45648;-76
2022/06/06 08:34:53;;;;;;;;;1.00;1.00;;;;;;;;5072384;28;45433;-76
2022/06/06 08:37:37;;;;;;;;;1.00;1.00;;;;;;;;5071266;28;45452;-75
2022/06/06 08:40:04;;;;;;;;;2.00;2.00;;;;;;;;5071150;27;45335;-76
2022/06/06 08:42:33;;;;;;;;;1.00;1.00;;;;;;;;5074615;28;45649;-76
2022/06/06 08:45:04;;;;;;;;;1.00;1.00;;;;;;;;5073070;28;45350;-75
2022/06/06 08:47:44;;;;;;;;;1.67;1.00;;;;;;;;5073222;28;47482;-76
2022/06/06 08:52:59;;;;;;;;;1.00;1.00;;;;;;;;5062198;28;45419;-76
2022/06/06 08:55:43;;;;;;;;;1.67;1.67;;;;;;;;5067476;27;45655;-76
2022/06/06 08:58:27;;;;;;;;;1.00;1.00;;;;;;;;5065729;28;45419;-76
2022/06/06 09:01:01;;;;;;;;;1.67;1.67;;;;;;;;5070921;27;45613;-75
2022/06/06 09:03:59;;;;;;;;;1.00;1.00;;;;;;;;5071564;27;45479;-75
2022/06/06 09:06:24;;;;;;;;;1.67;0.67;;;;;;;;5038054;28;45571;-75
2022/06/06 09:08:56;;;;;;;;;1.33;1.00;;;;;;;;5054918;28;45385;-75
2022/06/06 09:11:27;;;;;;;;;1.00;1.00;;;;;;;;5065837;28;45379;-75
2022/06/06 09:13:58;;;;;;;;;0.00;0.00;;;;;;;;5054578;28;45503;-76
2022/06/06 09:16:26;;;;;;;;;1.00;1.00;;;;;;;;5053385;28;45606;-75
2022/06/06 09:19:19;;;;;;;;;0.00;0.00;;;;;;;;5053542;28;47033;-76
2022/06/06 09:21:56;;;;;;;;;1.00;1.00;;;;;;;;5051761;28;48236;-75
2022/06/06 09:24:40;;;;;;;;;1.00;1.00;;;;;;;;5053963;28;45412;-75
2022/06/06 09:27:25;;;;;;;;;1.00;1.00;;;;;;;;5051477;28;45480;-75
2022/06/06 09:30:02;;;;;;;;;1.00;1.00;;;;;;;;5050662;28;46246;-76
2022/06/06 09:32:45;;;;;;;;;2.33;1.00;;;;;;;;5055204;28;45373;-76
2022/06/06 09:35:29;;;;;;;;;0.00;0.00;;;;;;;;5053751;28;45491;-75
2022/06/06 09:38:09;;;;;;;;;1.00;1.00;;;;;;;;5055590;28;45372;-75
2022/06/06 09:40:35;;;;;;;;;1.00;1.00;;;;;;;;5050567;28;46208;-76
2022/06/06 09:43:08;;;;;;;;;1.00;1.00;;;;;;;;5073990;27;45506;-75
2022/06/06 09:45:37;;;;;;;;;0.67;0.67;;;;;;;;5071211;28;45418;-75
2022/06/06 09:48:37;;;;;;;;;1.00;1.00;;;;;;;;5072858;27;45820;-75
2022/06/06 09:51:05;;;;;;;;;1.00;1.00;;;;;;;;5058368;27;45498;-76
2022/06/06 09:53:33;;;;;;;;;3.00;1.67;;;;;;;;5076559;27;48874;-74
2022/06/06 09:59:19;;;;;;;;;0.00;0.00;;;;;;;;5060864;28;45351;-75
2022/06/06 10:02:04;;;;;;;;;0.00;0.00;;;;;;;;5077045;27;47648;-74
2022/06/06 10:04:29;;;;;;;;;0.00;0.00;;;;;;;;5071217;27;45426;-74
2022/06/06 10:07:13;;;;;;;;;1.00;1.00;;;;;;;;5068209;27;50579;-75
2022/06/06 10:09:38;;;;;;;;;0.00;0.00;;;;;;;;5094186;27;45454;-75
2022/06/06 10:12:22;;;;;;;;;1.00;1.00;;;;;;;;5058758;28;45741;-76
2022/06/06 10:14:56;;;;;;;;;0.00;0.00;;;;;;;;5066986;27;45492;-76
2022/06/06 10:17:21;;;;;;;;;1.67;1.33;;;;;;;;5072420;28;45256;-76
2022/06/06 10:20:13;;;;;;;;;2.00;0.00;;;;;;;;5080870;27;45569;-76
2022/06/06 10:22:57;;;;;;;;;0.00;0.00;;;;;;;;5063068;27;46235;-76
2022/06/06 10:25:26;;;;;;;;;1.00;0.00;;;;;;;;5074497;27;45390;-76
2022/06/06 10:27:59;;;;;;;;;1.00;1.00;;;;;;;;5077191;27;45341;-77
2022/06/06 10:30:34;;;;;;;;;0.00;0.00;;;;;;;;5069567;27;45510;-76
2022/06/06 10:33:06;;;;;;;;;0.67;0.67;;;;;;;;5071873;27;45469;-76
2022/06/06 10:35:34;;;;;;;;;0.00;0.00;;;;;;;;5058354;28;45395;-75
2022/06/06 10:38:03;;;;;;;;;1.00;1.00;;;;;;;;5060714;28;45522;-76
2022/06/06 10:40:37;;;;;;;;;0.67;0.67;;;;;;;;5066589;28;45409;-76
2022/06/06 10:43:12;;;;;;;;;1.67;1.00;;;;;;;;5072722;27;45344;-76
2022/06/06 10:45:40;;;;;;;;;0.00;0.00;;;;;;;;5068398;28;45462;-76
2022/06/06 10:48:24;;;;;;;;;1.00;1.00;;;;;;;;5072222;28;45398;-75
2022/06/06 10:54:11;;;;;;;;;0.33;0.33;;;;;;;;5057905;28;45258;-76
2022/06/06 10:56:36;;;;;;;;;1.00;1.00;;;;;;;;5071981;28;45338;-76
2022/06/06 10:59:01;;;;;;;;;0.00;0.00;;;;;;;;5071450;28;45515;-76
2022/06/06 11:01:26;;;;;;;;;1.00;1.00;;;;;;;;5069023;27;45409;-76
2022/06/06 11:03:54;;;;;;;;;1.00;1.00;;;;;;;;5076610;27;46277;-75
2022/06/06 11:06:38;;;;;;;;;0.00;0.00;;;;;;;;5071721;27;45549;-76
2022/06/06 11:09:12;;;;;;;;;1.00;1.00;;;;;;;;5076718;27;45444;-75
2022/06/06 11:11:37;;;;;;;;;0.00;0.00;;;;;;;;5079423;27;45497;-76
2022/06/06 11:14:06;;;;;;;;;0.00;0.00;;;;;;;;5059470;28;46015;-75
2022/06/06 11:16:32;;;;;;;;;0.33;0.33;;;;;;;;5069183;27;46308;-76
2022/06/06 11:19:00;;;;;;;;;0.00;0.00;;;;;;;;5073906;27;45572;-76
2022/06/06 11:21:41;;;;;;;;;0.00;0.00;;;;;;;;5059774;27;45411;-75
2022/06/06 11:24:25;;;;;;;;;0.00;0.00;;;;;;;;5071049;28;45526;-76
2022/06/06 11:27:20;;;;;;;;;1.33;1.33;;;;;;;;5071712;27;45477;-76
2022/06/06 11:30:04;;;;;;;;;2.33;0.00;;;;;;;;5055596;28;45613;-76
2022/06/06 11:32:48;;;;;;;;;0.67;0.67;;;;;;;;5082614;27;45581;-76
2022/06/06 11:35:28;;;;;;;;;1.00;1.00;;;;;;;;5059629;28;46210;-75
2022/06/06 11:38:12;;;;;;;;;1.00;1.00;;;;;;;;5060062;27;45478;-76
2022/06/06 11:40:46;;;;;;;;;0.33;0.33;;;;;;;;5069101;27;45348;-77
2022/06/06 11:43:21;;;;;;;;;1.00;1.00;;;;;;;;5068358;28;45375;-75
2022/06/06 11:46:12;;;;;;;;;1.00;0.00;;;;;;;;5068173;28;46214;-76
2022/06/06 11:48:56;;;;;;;;;1.33;0.67;;;;;;;;5058966;27;45316;-75
2022/06/06 11:51:32;;;;;;;;;1.33;1.00;;;;;;;;5072195;27;45511;-76
2022/06/06 11:54:03;;;;;;;;;1.00;0.00;;;;;;;;5057208;28;45539;-77
2022/06/06 11:56:51;;;;;;;;;0.00;0.00;;;;;;;;5071300;28;45667;-76
2022/06/06 11:59:16;;;;;;;;;1.00;1.00;;;;;;;;5062641;27;45418;-75
2022/06/06 12:02:00;;;;;;;;;0.00;0.00;;;;;;;;5072445;27;45588;-76
2022/06/06 12:04:49;;;;;;;;;1.00;1.00;;;;;;;;5072009;27;45383;-75
2022/06/06 12:07:23;;;;;;;;;0.00;0.00;;;;;;;;5067503;27;45473;-76
2022/06/06 12:10:02;;;;;;;;;0.67;0.67;;;;;;;;5065529;27;45470;-76
2022/06/06 12:12:27;;;;;;;;;0.33;0.33;;;;;;;;5077546;27;45465;-76
2022/06/06 12:15:11;;;;;;;;;0.00;0.00;;;;;;;;5060565;28;45282;-75
2022/06/06 12:17:53;;;;;;;;;0.00;0.00;;;;;;;;5059675;27;46407;-76
2022/06/06 12:20:29;;;;;;;;;1.00;1.00;;;;;;;;5074303;28;45355;-76
2022/06/06 12:23:07;;;;;;;;;1.67;0.33;;;;;;;;5076510;27;45506;-75
2022/06/06 12:25:32;;;;;;;;;1.00;1.00;;;;;;;;5080587;27;45429;-76
2022/06/06 12:28:09;;;;;;;;;0.00;0.00;;;;;;;;5076794;27;46031;-75
2022/06/06 12:30:45;;;;;;;;;0.67;0.67;;;;;;;;5070454;27;45361;-76
2022/06/06 12:33:18;;;;;;;;;1.00;0.00;;;;;;;;5061377;28;45474;-76
2022/06/06 12:35:49;;;;;;;;;1.00;1.00;;;;;;;;5091756;27;45342;-72
2022/06/06 12:38:14;;;;;;;;;0.00;0.00;;;;;;;;5082041;27;45921;-73
2022/06/06 12:40:51;;;;;;;;;0.00;0.00;;;;;;;;5077542;27;45458;-74
2022/06/06 12:43:35;;;;;;;;;2.00;1.00;;;;;;;;5071540;28;45398;-76
2022/06/06 12:46:09;;;;;;;;;0.00;0.00;;;;;;;;5068729;27;45452;-75
2022/06/06 12:48:36;;;;;;;;;0.00;0.00;;;;;;;;5061105;28;47133;-75
2022/06/06 12:51:04;;;;;;;;;2.67;2.00;;;;;;;;5073807;28;45522;-76
2022/06/06 12:53:49;;;;;;;;;1.00;1.00;;;;;;;;5068633;27;45476;-75
2022/06/06 12:56:27;;;;;;;;;1.00;1.00;;;;;;;;5061553;28;45416;-78
2022/06/06 12:58:52;;;;;;;;;1.00;1.00;;;;;;;;5070608;27;47262;-77
2022/06/06 13:01:38;;;;;;;;;1.00;1.00;;;;;;;;5072457;27;45492;-75
2022/06/06 13:04:09;;;;;;;;;2.33;1.00;;;;;;;;5076797;27;45224;-75
2022/06/06 13:06:35;;;;;;;;;1.00;1.00;;;;;;;;5072669;27;45508;-73
2022/06/06 13:09:15;;;;;;;;;1.33;1.33;;;;;;;;5058912;28;46271;-72
2022/06/06 13:11:59;;;;;;;;;1.00;1.00;;;;;;;;5087760;27;45473;-73
2022/06/06 13:14:31;;;;;;;;;0.67;0.67;;;;;;;;5073188;28;45330;-73
2022/06/06 13:17:18;;;;;;;;;1.00;1.00;;;;;;;;5072395;28;45544;-74
2022/06/06 13:19:43;;;;;;;;;2.33;2.00;;;;;;;;5062401;28;46164;-73
2022/06/06 13:22:14;;;;;;;;;1.67;1.00;;;;;;;;5066799;27;45269;-74
2022/06/06 13:24:53;;;;;;;;;1.00;1.00;;;;;;;;5061667;28;45311;-74
2022/06/06 13:27:25;;;;;;;;;1.00;1.00;;;;;;;;5058765;28;45418;-73
2022/06/06 13:29:50;;;;;;;;;2.00;1.33;;;;;;;;5057519;28;45269;-73
2022/06/06 13:32:18;;;;;;;;;1.67;1.67;;;;;;;;5061257;28;45465;-73
2022/06/06 13:35:02;;;;;;;;;1.00;1.00;;;;;;;;5077816;27;45395;-75
2022/06/06 13:37:27;;;;;;;;;2.00;1.00;;;;;;;;5073957;27;45493;-75
2022/06/06 13:40:06;;;;;;;;;2.00;2.00;;;;;;;;5075764;27;46087;-76
2022/06/06 13:42:49;;;;;;;;;0.33;0.33;;;;;;;;5080849;27;45347;-76
2022/06/06 13:45:19;;;;;;;;;0.00;0.00;;;;;;;;5074972;27;45486;-75
2022/06/06 13:48:13;;;;;;;;;1.00;1.00;;;;;;;;5057689;28;45363;-75
2022/06/06 13:50:59;;;;;;;;;0.00;0.00;;;;;;;;5073346;28;46152;-75
2022/06/06 13:53:24;;;;;;;;;1.00;1.00;;;;;;;;5071944;28;45349;-75
2022/06/06 13:56:06;;;;;;;;;0.00;0.00;;;;;;;;5070539;28;45390;-76
2022/06/06 13:58:38;;;;;;;;;0.67;0.67;;;;;;;;5060478;27;45480;-76
2022/06/06 14:01:14;;;;;;;;;1.00;1.00;;;;;;;;5064059;28;47373;-75
2022/06/06 14:03:49;;;;;;;;;1.67;1.67;;;;;;;;5061964;27;45506;-75
2022/06/06 14:06:33;;;;;;;;;1.00;1.00;;;;;;;;5062752;28;45421;-76
2022/06/06 14:08:58;;;;;;;;;1.00;1.00;;;;;;;;5082952;27;45503;-76
2022/06/06 14:11:47;;;;;;;;;1.00;1.00;;;;;;;;5072375;28;46235;-76
2022/06/06 14:14:14;;;;;;;;;1.00;1.00;;;;;;;;5080204;27;45350;-75
2022/06/06 14:16:40;;;;;;;;;1.00;1.00;;;;;;;;5069419;28;45647;-75
2022/06/06 14:19:12;;;;;;;;;0.67;0.67;;;;;;;;5066233;28;45561;-75
2022/06/06 14:21:39;;;;;;;;;1.00;1.00;;;;;;;;5060335;28;45468;-74
2022/06/06 14:24:05;;;;;;;;;0.67;0.67;;;;;;;;5083946;27;45421;-73
2022/06/06 14:26:30;;;;;;;;;1.00;1.00;;;;;;;;5076154;27;45280;-73
2022/06/06 14:29:14;;;;;;;;;0.33;0.33;;;;;;;;5067925;28;45522;-77
2022/06/06 14:31:42;;;;;;;;;2.33;1.33;;;;;;;;5063141;27;47098;-73
2022/06/06 14:34:18;;;;;;;;;1.67;1.67;;;;;;;;5060989;28;45455;-79
2022/06/06 14:36:46;;;;;;;;;1.00;1.00;;;;;;;;5067958;27;45406;-77
2022/06/06 14:39:20;;;;;;;;;0.33;0.00;;;;;;;;5072270;28;45356;-76
2022/06/06 14:41:49;;;;;;;;;1.00;1.00;;;;;;;;5082195;27;46213;-76
2022/06/06 14:44:26;;;;;;;;;2.00;1.00;;;;;;;;5071534;27;45501;-75
2022/06/06 14:46:53;;;;;;;;;4.00;2.00;;;;;;;;5077583;27;45263;-75
2022/06/06 14:49:23;;;;;;;;;1.00;1.00;;;;;;;;5063369;28;45444;-75
2022/06/06 14:51:48;;;;;;;;;1.00;1.00;;;;;;;;5060335;28;45417;-75
2022/06/06 14:54:15;;;;;;;;;1.00;1.00;;;;;;;;5071521;28;45421;-75
2022/06/06 14:57:01;;;;;;;;;1.67;1.67;;;;;;;;5082571;27;45628;-77
2022/06/06 14:59:38;;;;;;;;;2.00;1.33;;;;;;;;5060360;27;45593;-75
2022/06/06 15:02:09;;;;;;;;;1.00;1.00;;;;;;;;5058456;28;47318;-75
2022/06/06 15:04:35;;;;;;;;;1.00;0.67;;;;;;;;5057109;27;45615;-75
2022/06/06 15:07:01;;;;;;;;;1.67;1.00;;;;;;;;5062252;28;45607;-75
2022/06/06 15:09:32;;;;;;;;;1.00;1.00;;;;;;;;5068763;28;45367;-76
2022/06/06 15:11:58;;;;;;;;;1.00;1.00;;;;;;;;5073545;27;47208;-74
2022/06/06 15:14:29;;;;;;;;;1.00;1.00;;;;;;;;5071299;28;45363;-76
2022/06/06 15:16:55;;;;;;;;;0.33;0.00;;;;;;;;5076912;27;45404;-75
2022/06/06 15:19:30;;;;;;;;;0.00;0.00;;;;;;;;5072987;28;45489;-75
2022/06/06 15:21:56;;;;;;;;;0.33;0.33;;;;;;;;5073356;28;45444;-75
2022/06/06 15:24:28;;;;;;;;;2.00;0.67;;;;;;;;5071592;27;45434;-75
2022/06/06 15:26:59;;;;;;;;;1.33;1.00;;;;;;;;5074364;27;45336;-75
2022/06/06 15:29:28;;;;;;;;;2.00;2.00;;;;;;;;5073329;27;45382;-75
2022/06/06 15:32:08;;;;;;;;;1.33;1.00;;;;;;;;5072489;28;47221;-75
2022/06/06 15:34:39;;;;;;;;;0.67;0.67;;;;;;;;5079698;27;45821;-75
2022/06/06 15:37:23;;;;;;;;;1.00;1.00;;;;;;;;5073650;27;45569;-74
2022/06/06 15:40:07;;;;;;;;;1.00;0.00;;;;;;;;5070609;27;45201;-75